sensor_id;sensor_type;location;lat;lon;timestamp;P1;durP1;ratioP1;P2;durP2;ratioP2
22565;SDS011;11449;51.330;19.378;2023-10-31T00:04:41;429.80;;;385.20;;
22565;SDS011;11449;51.330;19.378;2023-10-31T00:09:49;446.90;;;400.30;;
22565;SDS011;11449;51.330;19.378;2023-10-31T00:14:57;505.50;;;457.50;;
22565;SDS011;11449;51.330;19.378;2023-10-31T00:20:00;502.50;;;455.40;;
22565;SDS011;11449;51.330;19.378;2023-10-31T00:25:08;550.00;;;500.90;;
22565;SDS011;11449;51.330;19.378;2023-10-31T00:30:16;200.80;;;98.00;;
22565;SDS011;11449;51.330;19.378;2023-10-31T00:35:24;212.20;;;109.50;;
22565;SDS011;11449;51.330;19.378;2023-10-31T00:40:32;199.80;;;96.30;;
22565;SDS011;11449;51.330;19.378;2023-10-31T00:45:39;276.30;;;119.40;;
22565;SDS011;11449;51.330;19.378;2023-10-31T00:50:43;272.90;;;131.20;;
22565;SDS011;11449;51.330;19.378;2023-10-31T00:55:51;328.50;;;179.30;;
22565;SDS011;11449;51.330;19.378;2023-10-31T01:00:55;331.10;;;194.50;;
22565;SDS011;11449;51.330;19.378;2023-10-31T01:05:58;280.90;;;164.60;;
22565;SDS011;11449;51.330;19.378;2023-10-31T01:11:06;294.60;;;167.40;;
22565;SDS011;11449;51.330;19.378;2023-10-31T01:16:14;249.80;;;140.30;;
22565;SDS011;11449;51.330;19.378;2023-10-31T01:21:22;269.90;;;240.30;;
22565;SDS011;11449;51.330;19.378;2023-10-31T01:26:30;215.90;;;168.00;;
22565;SDS011;11449;51.330;19.378;2023-10-31T01:31:40;261.20;;;215.50;;
22565;SDS011;11449;51.330;19.378;2023-10-31T01:36:52;363.20;;;319.40;;
22565;SDS011;11449;51.330;19.378;2023-10-31T01:41:55;498.40;;;444.00;;
22565;SDS011;11449;51.330;19.378;2023-10-31T01:47:05;706.80;;;648.90;;
22565;SDS011;11449;51.330;19.378;2023-10-31T01:52:09;705.70;;;648.10;;
22565;SDS011;11449;51.330;19.378;2023-10-31T01:57:46;700.30;;;641.90;;
22565;SDS011;11449;51.330;19.378;2023-10-31T02:08:15;480.00;;;435.80;;
22565;SDS011;11449;51.330;19.378;2023-10-31T02:13:26;231.10;;;137.70;;
22565;SDS011;11449;51.330;19.378;2023-10-31T02:18:34;253.20;;;149.00;;
22565;SDS011;11449;51.330;19.378;2023-10-31T02:23:42;210.70;;;105.20;;
22565;SDS011;11449;51.330;19.378;2023-10-31T02:28:50;246.30;;;116.80;;
22565;SDS011;11449;51.330;19.378;2023-10-31T02:33:57;228.50;;;117.60;;
22565;SDS011;11449;51.330;19.378;2023-10-31T02:39:06;240.70;;;138.10;;
22565;SDS011;11449;51.330;19.378;2023-10-31T02:44:14;246.20;;;132.60;;
22565;SDS011;11449;51.330;19.378;2023-10-31T02:49:23;300.90;;;171.20;;
22565;SDS011;11449;51.330;19.378;2023-10-31T02:54:31;256.70;;;149.00;;
22565;SDS011;11449;51.330;19.378;2023-10-31T02:59:38;263.50;;;143.80;;
22565;SDS011;11449;51.330;19.378;2023-10-31T03:04:46;313.50;;;172.00;;
22565;SDS011;11449;51.330;19.378;2023-10-31T03:09:50;364.60;;;224.20;;
22565;SDS011;11449;51.330;19.378;2023-10-31T03:14:54;299.20;;;176.00;;
22565;SDS011;11449;51.330;19.378;2023-10-31T03:20:02;284.30;;;168.20;;
22565;SDS011;11449;51.330;19.378;2023-10-31T03:25:10;294.40;;;172.90;;
22565;SDS011;11449;51.330;19.378;2023-10-31T03:30:18;317.80;;;197.90;;
22565;SDS011;11449;51.330;19.378;2023-10-31T03:35:21;321.20;;;191.10;;
22565;SDS011;11449;51.330;19.378;2023-10-31T03:40:29;357.10;;;226.60;;
22565;SDS011;11449;51.330;19.378;2023-10-31T03:45:37;852.40;;;784.70;;
22565;SDS011;11449;51.330;19.378;2023-10-31T03:50:46;862.20;;;796.30;;
22565;SDS011;11449;51.330;19.378;2023-10-31T03:56:10;898.70;;;829.00;;
22565;SDS011;11449;51.330;19.378;2023-10-31T04:01:15;904.60;;;833.10;;
22565;SDS011;11449;51.330;19.378;2023-10-31T04:11:36;925.80;;;855.80;;
22565;SDS011;11449;51.330;19.378;2023-10-31T04:16:46;878.70;;;808.50;;
22565;SDS011;11449;51.330;19.378;2023-10-31T04:21:54;923.80;;;854.80;;
22565;SDS011;11449;51.330;19.378;2023-10-31T04:27:23;28.60;;;6.40;;
22565;SDS011;11449;51.330;19.378;2023-10-31T04:32:30;29.00;;;6.20;;
22565;SDS011;11449;51.330;19.378;2023-10-31T04:37:38;28.90;;;6.30;;
22565;SDS011;11449;51.330;19.378;2023-10-31T04:42:41;27.30;;;5.80;;
22565;SDS011;11449;51.330;19.378;2023-10-31T04:47:44;34.60;;;7.10;;
22565;SDS011;11449;51.330;19.378;2023-10-31T04:52:47;27.80;;;6.10;;
22565;SDS011;11449;51.330;19.378;2023-10-31T04:57:54;29.10;;;5.70;;
22565;SDS011;11449;51.330;19.378;2023-10-31T05:03:02;225.50;;;126.40;;
22565;SDS011;11449;51.330;19.378;2023-10-31T05:08:10;298.10;;;178.60;;
22565;SDS011;11449;51.330;19.378;2023-10-31T05:13:13;249.80;;;139.10;;
22565;SDS011;11449;51.330;19.378;2023-10-31T05:18:22;241.40;;;134.30;;
22565;SDS011;11449;51.330;19.378;2023-10-31T05:23:29;269.90;;;152.20;;
22565;SDS011;11449;51.330;19.378;2023-10-31T05:28:37;289.90;;;159.70;;
22565;SDS011;11449;51.330;19.378;2023-10-31T05:33:45;345.70;;;209.80;;
22565;SDS011;11449;51.330;19.378;2023-10-31T05:38:53;316.10;;;157.40;;
22565;SDS011;11449;51.330;19.378;2023-10-31T05:44:01;253.80;;;140.20;;
22565;SDS011;11449;51.330;19.378;2023-10-31T05:49:09;288.40;;;176.60;;
22565;SDS011;11449;51.330;19.378;2023-10-31T05:54:13;268.10;;;138.90;;
22565;SDS011;11449;51.330;19.378;2023-10-31T05:59:21;211.30;;;103.20;;
22565;SDS011;11449;51.330;19.378;2023-10-31T06:04:29;236.80;;;127.40;;
22565;SDS011;11449;51.330;19.378;2023-10-31T06:09:37;263.70;;;230.10;;
22565;SDS011;11449;51.330;19.378;2023-10-31T06:15:09;505.90;;;455.60;;
22565;SDS011;11449;51.330;19.378;2023-10-31T06:20:59;373.70;;;337.10;;
22565;SDS011;11449;51.330;19.378;2023-10-31T06:26:07;103.60;;;31.20;;
22565;SDS011;11449;51.330;19.378;2023-10-31T06:31:14;168.90;;;57.00;;
22565;SDS011;11449;51.330;19.378;2023-10-31T06:36:22;160.40;;;74.00;;
22565;SDS011;11449;51.330;19.378;2023-10-31T06:41:30;177.30;;;87.30;;
22565;SDS011;11449;51.330;19.378;2023-10-31T06:46:38;148.00;;;63.60;;
22565;SDS011;11449;51.330;19.378;2023-10-31T06:51:46;199.00;;;80.70;;
22565;SDS011;11449;51.330;19.378;2023-10-31T06:56:54;254.40;;;139.90;;
22565;SDS011;11449;51.330;19.378;2023-10-31T07:02:02;328.30;;;293.50;;
22565;SDS011;11449;51.330;19.378;2023-10-31T07:07:08;424.00;;;383.40;;
22565;SDS011;11449;51.330;19.378;2023-10-31T07:12:37;555.10;;;505.70;;
22565;SDS011;11449;51.330;19.378;2023-10-31T07:18:45;605.20;;;550.10;;
22565;SDS011;11449;51.330;19.378;2023-10-31T07:23:53;563.70;;;509.50;;
22565;SDS011;11449;51.330;19.378;2023-10-31T07:29:41;666.80;;;609.00;;
22565;SDS011;11449;51.330;19.378;2023-10-31T07:35:13;581.90;;;531.40;;
22565;SDS011;11449;51.330;19.378;2023-10-31T07:40:53;560.20;;;509.10;;
22565;SDS011;11449;51.330;19.378;2023-10-31T07:46:33;67.90;;;14.20;;
22565;SDS011;11449;51.330;19.378;2023-10-31T07:51:42;114.30;;;24.90;;
22565;SDS011;11449;51.330;19.378;2023-10-31T07:56:50;270.60;;;91.50;;
22565;SDS011;11449;51.330;19.378;2023-10-31T08:01:57;171.60;;;74.40;;
22565;SDS011;11449;51.330;19.378;2023-10-31T08:07:15;130.60;;;53.00;;
22565;SDS011;11449;51.330;19.378;2023-10-31T08:12:23;134.40;;;53.10;;
22565;SDS011;11449;51.330;19.378;2023-10-31T08:17:26;174.10;;;84.10;;
22565;SDS011;11449;51.330;19.378;2023-10-31T08:22:46;199.60;;;98.10;;
22565;SDS011;11449;51.330;19.378;2023-10-31T08:27:49;282.70;;;140.30;;
22565;SDS011;11449;51.330;19.378;2023-10-31T08:32:57;217.10;;;106.80;;
22565;SDS011;11449;51.330;19.378;2023-10-31T08:38:00;230.00;;;122.70;;
22565;SDS011;11449;51.330;19.378;2023-10-31T08:43:08;210.80;;;121.30;;
22565;SDS011;11449;51.330;19.378;2023-10-31T08:48:16;161.50;;;66.30;;
22565;SDS011;11449;51.330;19.378;2023-10-31T08:53:25;127.20;;;89.40;;
22565;SDS011;11449;51.330;19.378;2023-10-31T08:59:12;167.20;;;109.10;;
22565;SDS011;11449;51.330;19.378;2023-10-31T09:04:26;180.30;;;128.70;;
22565;SDS011;11449;51.330;19.378;2023-10-31T09:15:41;183.00;;;97.30;;
22565;SDS011;11449;51.330;19.378;2023-10-31T09:21:25;106.30;;;20.90;;
22565;SDS011;11449;51.330;19.378;2023-10-31T09:26:33;83.60;;;21.40;;
22565;SDS011;11449;51.330;19.378;2023-10-31T09:31:41;87.00;;;14.80;;
22565;SDS011;11449;51.330;19.378;2023-10-31T09:36:49;118.30;;;26.20;;
22565;SDS011;11449;51.330;19.378;2023-10-31T09:41:52;167.50;;;89.20;;
22565;SDS011;11449;51.330;19.378;2023-10-31T09:47:37;92.90;;;25.70;;
22565;SDS011;11449;51.330;19.378;2023-10-31T09:52:40;106.60;;;23.00;;
22565;SDS011;11449;51.330;19.378;2023-10-31T09:57:48;117.30;;;27.30;;
22565;SDS011;11449;51.330;19.378;2023-10-31T10:02:50;154.90;;;41.90;;
22565;SDS011;11449;51.330;19.378;2023-10-31T10:07:59;110.20;;;30.20;;
22565;SDS011;11449;51.330;19.378;2023-10-31T10:13:02;84.40;;;17.70;;
22565;SDS011;11449;51.330;19.378;2023-10-31T10:18:10;92.30;;;20.40;;
22565;SDS011;11449;51.330;19.378;2023-10-31T10:29:25;63.20;;;13.10;;
22565;SDS011;11449;51.330;19.378;2023-10-31T10:34:34;66.00;;;12.90;;
22565;SDS011;11449;51.330;19.378;2023-10-31T10:39:41;84.20;;;23.60;;
22565;SDS011;11449;51.330;19.378;2023-10-31T10:45:04;136.20;;;47.70;;
22565;SDS011;11449;51.330;19.378;2023-10-31T10:50:13;88.30;;;36.10;;
22565;SDS011;11449;51.330;19.378;2023-10-31T11:01:30;97.80;;;50.20;;
22565;SDS011;11449;51.330;19.378;2023-10-31T11:06:52;121.30;;;50.00;;
22565;SDS011;11449;51.330;19.378;2023-10-31T11:12:09;102.50;;;54.30;;
22565;SDS011;11449;51.330;19.378;2023-10-31T11:17:40;103.00;;;44.60;;
22565;SDS011;11449;51.330;19.378;2023-10-31T11:23:14;72.40;;;28.80;;
22565;SDS011;11449;51.330;19.378;2023-10-31T11:28:38;114.40;;;53.20;;
22565;SDS011;11449;51.330;19.378;2023-10-31T11:40:20;103.10;;;58.70;;
22565;SDS011;11449;51.330;19.378;2023-10-31T11:51:31;102.20;;;47.20;;
22565;SDS011;11449;51.330;19.378;2023-10-31T11:56:54;136.70;;;38.60;;
22565;SDS011;11449;51.330;19.378;2023-10-31T12:02:23;61.70;;;7.80;;
22565;SDS011;11449;51.330;19.378;2023-10-31T12:07:40;66.70;;;9.50;;
22565;SDS011;11449;51.330;19.378;2023-10-31T12:12:50;120.50;;;16.20;;
22565;SDS011;11449;51.330;19.378;2023-10-31T12:17:58;73.10;;;10.00;;
22565;SDS011;11449;51.330;19.378;2023-10-31T12:23:07;68.70;;;10.00;;
22565;SDS011;11449;51.330;19.378;2023-10-31T12:33:26;60.60;;;10.80;;
22565;SDS011;11449;51.330;19.378;2023-10-31T12:38:35;68.10;;;11.80;;
22565;SDS011;11449;51.330;19.378;2023-10-31T12:43:43;91.60;;;14.20;;
22565;SDS011;11449;51.330;19.378;2023-10-31T12:48:52;111.90;;;15.60;;
22565;SDS011;11449;51.330;19.378;2023-10-31T12:54:00;76.70;;;13.90;;
22565;SDS011;11449;51.330;19.378;2023-10-31T12:59:09;78.50;;;17.60;;
22565;SDS011;11449;51.330;19.378;2023-10-31T13:09:47;141.30;;;51.80;;
22565;SDS011;11449;51.330;19.378;2023-10-31T13:15:02;126.00;;;16.90;;
22565;SDS011;11449;51.330;19.378;2023-10-31T13:20:11;89.30;;;17.60;;
22565;SDS011;11449;51.330;19.378;2023-10-31T13:25:20;77.70;;;17.70;;
22565;SDS011;11449;51.330;19.378;2023-10-31T13:30:28;90.60;;;20.10;;
22565;SDS011;11449;51.330;19.378;2023-10-31T13:35:30;88.70;;;15.70;;
22565;SDS011;11449;51.330;19.378;2023-10-31T13:40:40;80.20;;;12.90;;
22565;SDS011;11449;51.330;19.378;2023-10-31T13:46:09;96.70;;;25.70;;
22565;SDS011;11449;51.330;19.378;2023-10-31T13:56:41;94.60;;;20.70;;
22565;SDS011;11449;51.330;19.378;2023-10-31T14:01:58;115.90;;;31.80;;
22565;SDS011;11449;51.330;19.378;2023-10-31T14:07:09;60.20;;;14.90;;
22565;SDS011;11449;51.330;19.378;2023-10-31T14:18:04;68.50;;;10.40;;
22565;SDS011;11449;51.330;19.378;2023-10-31T14:23:28;57.40;;;8.10;;
22565;SDS011;11449;51.330;19.378;2023-10-31T14:28:34;50.30;;;8.90;;
22565;SDS011;11449;51.330;19.378;2023-10-31T14:33:55;102.40;;;13.70;;
22565;SDS011;11449;51.330;19.378;2023-10-31T14:39:18;66.10;;;8.90;;
22565;SDS011;11449;51.330;19.378;2023-10-31T14:44:49;78.60;;;8.70;;
22565;SDS011;11449;51.330;19.378;2023-10-31T14:49:57;62.30;;;7.60;;
22565;SDS011;11449;51.330;19.378;2023-10-31T14:55:08;67.30;;;9.90;;
22565;SDS011;11449;51.330;19.378;2023-10-31T15:00:14;65.90;;;6.60;;
22565;SDS011;11449;51.330;19.378;2023-10-31T15:05:30;63.80;;;9.40;;
22565;SDS011;11449;51.330;19.378;2023-10-31T15:10:52;98.10;;;9.10;;
22565;SDS011;11449;51.330;19.378;2023-10-31T15:21:49;124.60;;;14.60;;
22565;SDS011;11449;51.330;19.378;2023-10-31T15:26:57;84.50;;;11.30;;
22565;SDS011;11449;51.330;19.378;2023-10-31T15:32:05;88.20;;;12.10;;
22565;SDS011;11449;51.330;19.378;2023-10-31T15:37:13;66.50;;;9.00;;
22565;SDS011;11449;51.330;19.378;2023-10-31T15:42:21;82.80;;;12.70;;
22565;SDS011;11449;51.330;19.378;2023-10-31T15:47:29;95.80;;;17.70;;
22565;SDS011;11449;51.330;19.378;2023-10-31T15:52:37;99.10;;;21.80;;
22565;SDS011;11449;51.330;19.378;2023-10-31T15:57:45;98.70;;;13.90;;
22565;SDS011;11449;51.330;19.378;2023-10-31T16:02:53;33.90;;;8.20;;
22565;SDS011;11449;51.330;19.378;2023-10-31T16:08:01;23.30;;;6.60;;
22565;SDS011;11449;51.330;19.378;2023-10-31T16:13:08;23.70;;;6.00;;
22565;SDS011;11449;51.330;19.378;2023-10-31T16:18:16;25.60;;;5.60;;
22565;SDS011;11449;51.330;19.378;2023-10-31T16:23:24;22.20;;;6.20;;
22565;SDS011;11449;51.330;19.378;2023-10-31T16:28:32;33.50;;;10.50;;
22565;SDS011;11449;51.330;19.378;2023-10-31T16:33:40;23.40;;;6.10;;
22565;SDS011;11449;51.330;19.378;2023-10-31T16:38:48;33.50;;;7.30;;
22565;SDS011;11449;51.330;19.378;2023-10-31T16:43:56;31.70;;;7.00;;
22565;SDS011;11449;51.330;19.378;2023-10-31T16:49:04;29.40;;;6.60;;
22565;SDS011;11449;51.330;19.378;2023-10-31T16:54:12;34.20;;;9.70;;
22565;SDS011;11449;51.330;19.378;2023-10-31T16:59:19;45.00;;;16.90;;
22565;SDS011;11449;51.330;19.378;2023-10-31T17:04:27;39.90;;;11.90;;
22565;SDS011;11449;51.330;19.378;2023-10-31T17:09:35;55.50;;;22.30;;
22565;SDS011;11449;51.330;19.378;2023-10-31T17:14:43;48.50;;;18.30;;
22565;SDS011;11449;51.330;19.378;2023-10-31T17:19:50;55.40;;;13.00;;
22565;SDS011;11449;51.330;19.378;2023-10-31T17:25:00;41.60;;;13.20;;
22565;SDS011;11449;51.330;19.378;2023-10-31T17:30:08;80.20;;;25.10;;
22565;SDS011;11449;51.330;19.378;2023-10-31T17:35:37;43.10;;;10.70;;
22565;SDS011;11449;51.330;19.378;2023-10-31T17:40:48;59.80;;;8.70;;
22565;SDS011;11449;51.330;19.378;2023-10-31T17:45:57;328.10;;;283.10;;
22565;SDS011;11449;51.330;19.378;2023-10-31T17:51:14;962.20;;;888.00;;
22565;SDS011;11449;51.330;19.378;2023-10-31T17:56:25;1012.30;;;930.00;;
22565;SDS011;11449;51.330;19.378;2023-10-31T18:01:33;1036.40;;;951.00;;
22565;SDS011;11449;51.330;19.378;2023-10-31T18:06:41;1018.50;;;938.30;;
22565;SDS011;11449;51.330;19.378;2023-10-31T18:12:09;1003.60;;;926.80;;
22565;SDS011;11449;51.330;19.378;2023-10-31T18:17:20;994.50;;;916.80;;
22565;SDS011;11449;51.330;19.378;2023-10-31T18:22:48;1025.90;;;942.00;;
22565;SDS011;11449;51.330;19.378;2023-10-31T18:27:56;1024.80;;;942.20;;
22565;SDS011;11449;51.330;19.378;2023-10-31T18:33:04;1006.80;;;928.60;;
22565;SDS011;11449;51.330;19.378;2023-10-31T18:38:13;1004.30;;;925.80;;
22565;SDS011;11449;51.330;19.378;2023-10-31T18:43:21;377.60;;;250.70;;
22565;SDS011;11449;51.330;19.378;2023-10-31T18:48:29;384.40;;;252.60;;
22565;SDS011;11449;51.330;19.378;2023-10-31T18:53:31;349.40;;;202.70;;
22565;SDS011;11449;51.330;19.378;2023-10-31T18:58:39;378.10;;;238.50;;
22565;SDS011;11449;51.330;19.378;2023-10-31T19:03:47;417.70;;;254.40;;
22565;SDS011;11449;51.330;19.378;2023-10-31T19:08:55;326.60;;;185.80;;
22565;SDS011;11449;51.330;19.378;2023-10-31T19:14:03;280.50;;;161.30;;
22565;SDS011;11449;51.330;19.378;2023-10-31T19:19:11;390.10;;;255.50;;
22565;SDS011;11449;51.330;19.378;2023-10-31T19:24:18;373.00;;;230.80;;
22565;SDS011;11449;51.330;19.378;2023-10-31T19:29:26;359.40;;;228.90;;
22565;SDS011;11449;51.330;19.378;2023-10-31T19:34:34;306.90;;;179.20;;
22565;SDS011;11449;51.330;19.378;2023-10-31T19:39:43;374.60;;;242.00;;
22565;SDS011;11449;51.330;19.378;2023-10-31T19:44:51;441.80;;;299.30;;
22565;SDS011;11449;51.330;19.378;2023-10-31T19:49:59;331.30;;;200.40;;
22565;SDS011;11449;51.330;19.378;2023-10-31T19:55:09;327.10;;;194.40;;
22565;SDS011;11449;51.330;19.378;2023-10-31T20:00:42;350.70;;;220.40;;
22565;SDS011;11449;51.330;19.378;2023-10-31T20:05:50;379.50;;;240.20;;
22565;SDS011;11449;51.330;19.378;2023-10-31T20:10:58;405.80;;;255.40;;
22565;SDS011;11449;51.330;19.378;2023-10-31T20:16:06;351.00;;;216.70;;
22565;SDS011;11449;51.330;19.378;2023-10-31T20:21:15;716.50;;;653.00;;
22565;SDS011;11449;51.330;19.378;2023-10-31T20:26:23;139.80;;;96.40;;
22565;SDS011;11449;51.330;19.378;2023-10-31T20:31:31;26.50;;;4.40;;
22565;SDS011;11449;51.330;19.378;2023-10-31T20:36:59;32.40;;;5.30;;
22565;SDS011;11449;51.330;19.378;2023-10-31T20:42:07;24.30;;;4.50;;
22565;SDS011;11449;51.330;19.378;2023-10-31T20:47:15;25.30;;;4.60;;
22565;SDS011;11449;51.330;19.378;2023-10-31T20:52:28;30.20;;;5.10;;
22565;SDS011;11449;51.330;19.378;2023-10-31T20:57:36;31.40;;;5.20;;
22565;SDS011;11449;51.330;19.378;2023-10-31T21:02:44;40.10;;;6.10;;
22565;SDS011;11449;51.330;19.378;2023-10-31T21:07:47;37.20;;;5.60;;
22565;SDS011;11449;51.330;19.378;2023-10-31T21:12:58;31.00;;;4.60;;
22565;SDS011;11449;51.330;19.378;2023-10-31T21:18:07;29.70;;;4.80;;
22565;SDS011;11449;51.330;19.378;2023-10-31T21:23:16;42.00;;;9.90;;
22565;SDS011;11449;51.330;19.378;2023-10-31T21:28:24;25.30;;;4.40;;
22565;SDS011;11449;51.330;19.378;2023-10-31T21:33:36;34.00;;;4.90;;
22565;SDS011;11449;51.330;19.378;2023-10-31T21:38:48;44.30;;;5.60;;
22565;SDS011;11449;51.330;19.378;2023-10-31T21:43:59;35.60;;;5.10;;
22565;SDS011;11449;51.330;19.378;2023-10-31T21:49:07;31.60;;;4.30;;
22565;SDS011;11449;51.330;19.378;2023-10-31T21:54:10;26.70;;;4.20;;
22565;SDS011;11449;51.330;19.378;2023-10-31T21:59:18;30.60;;;4.50;;
22565;SDS011;11449;51.330;19.378;2023-10-31T22:04:21;39.00;;;5.60;;
22565;SDS011;11449;51.330;19.378;2023-10-31T22:09:24;33.70;;;4.60;;
22565;SDS011;11449;51.330;19.378;2023-10-31T22:14:32;29.10;;;4.80;;
22565;SDS011;11449;51.330;19.378;2023-10-31T22:19:35;38.00;;;5.40;;
22565;SDS011;11449;51.330;19.378;2023-10-31T22:24:43;35.20;;;4.90;;
22565;SDS011;11449;51.330;19.378;2023-10-31T22:29:51;24.20;;;3.80;;
22565;SDS011;11449;51.330;19.378;2023-10-31T22:34:59;40.00;;;5.90;;
22565;SDS011;11449;51.330;19.378;2023-10-31T22:40:07;43.30;;;6.10;;
22565;SDS011;11449;51.330;19.378;2023-10-31T22:45:37;28.30;;;4.80;;
22565;SDS011;11449;51.330;19.378;2023-10-31T22:50:44;24.70;;;3.90;;
22565;SDS011;11449;51.330;19.378;2023-10-31T22:55:53;25.50;;;4.40;;
22565;SDS011;11449;51.330;19.378;2023-10-31T23:01:01;38.80;;;5.70;;
22565;SDS011;11449;51.330;19.378;2023-10-31T23:06:13;30.70;;;4.60;;
22565;SDS011;11449;51.330;19.378;2023-10-31T23:11:19;41.00;;;6.20;;
22565;SDS011;11449;51.330;19.378;2023-10-31T23:16:28;23.50;;;3.90;;
22565;SDS011;11449;51.330;19.378;2023-10-31T23:21:36;20.50;;;3.60;;
22565;SDS011;11449;51.330;19.378;2023-10-31T23:26:39;26.50;;;4.50;;
22565;SDS011;11449;51.330;19.378;2023-10-31T23:31:49;29.70;;;4.70;;
22565;SDS011;11449;51.330;19.378;2023-10-31T23:37:07;36.80;;;5.70;;
22565;SDS011;11449;51.330;19.378;2023-10-31T23:42:15;52.20;;;7.70;;
22565;SDS011;11449;51.330;19.378;2023-10-31T23:47:23;33.50;;;5.50;;
22565;SDS011;11449;51.330;19.378;2023-10-31T23:52:31;42.40;;;6.50;;
22565;SDS011;11449;51.330;19.378;2023-10-31T23:57:38;45.70;;;7.00;;
